sensor_id;sensor_type;location;lat;lon;timestamp;temperature;humidity
76751;SHT31;65216;51.090;-115.352;2024-03-02T00:01:36;22.54;22.84
76751;SHT31;65216;51.090;-115.352;2024-03-02T00:04:03;22.53;22.74
76751;SHT31;65216;51.090;-115.352;2024-03-02T00:06:32;22.55;22.74
76751;SHT31;65216;51.090;-115.352;2024-03-02T00:09:00;22.55;22.73
76751;SHT31;65216;51.090;-115.352;2024-03-02T00:11:37;22.57;22.67
76751;SHT31;65216;51.090;-115.352;2024-03-02T00:14:04;22.59;22.60
76751;SHT31;65216;51.090;-115.352;2024-03-02T00:16:32;22.58;22.63
76751;SHT31;65216;51.090;-115.352;2024-03-02T00:19:07;22.58;22.60
76751;SHT31;65216;51.090;-115.352;2024-03-02T00:21:38;22.58;22.55
76751;SHT31;65216;51.090;-115.352;2024-03-02T00:24:12;22.58;22.52
76751;SHT31;65216;51.090;-115.352;2024-03-02T00:26:52;22.56;22.53
76751;SHT31;65216;51.090;-115.352;2024-03-02T00:29:18;22.54;22.55
76751;SHT31;65216;51.090;-115.352;2024-03-02T00:31:46;22.55;22.55
76751;SHT31;65216;51.090;-115.352;2024-03-02T00:34:14;22.53;22.60
76751;SHT31;65216;51.090;-115.352;2024-03-02T00:36:41;22.52;22.63
76751;SHT31;65216;51.090;-115.352;2024-03-02T00:39:10;22.50;22.65
76751;SHT31;65216;51.090;-115.352;2024-03-02T00:41:43;22.50;22.78
76751;SHT31;65216;51.090;-115.352;2024-03-02T00:44:15;22.50;22.76
76751;SHT31;65216;51.090;-115.352;2024-03-02T00:46:46;22.50;22.75
76751;SHT31;65216;51.090;-115.352;2024-03-02T00:51:50;22.51;22.88
76751;SHT31;65216;51.090;-115.352;2024-03-02T00:54:22;22.50;22.81
76751;SHT31;65216;51.090;-115.352;2024-03-02T00:56:57;22.50;22.87
76751;SHT31;65216;51.090;-115.352;2024-03-02T00:59:24;22.49;22.79
76751;SHT31;65216;51.090;-115.352;2024-03-02T01:01:51;22.50;22.81
76751;SHT31;65216;51.090;-115.352;2024-03-02T01:04:19;22.51;22.79
76751;SHT31;65216;51.090;-115.352;2024-03-02T01:06:46;22.51;22.80
76751;SHT31;65216;51.090;-115.352;2024-03-02T01:09:13;22.49;22.76
76751;SHT31;65216;51.090;-115.352;2024-03-02T01:11:51;22.49;22.77
76751;SHT31;65216;51.090;-115.352;2024-03-02T01:14:18;22.48;22.71
76751;SHT31;65216;51.090;-115.352;2024-03-02T01:16:45;22.47;22.71
76751;SHT31;65216;51.090;-115.352;2024-03-02T01:19:12;22.47;22.72
76751;SHT31;65216;51.090;-115.352;2024-03-02T01:21:40;22.46;22.72
76751;SHT31;65216;51.090;-115.352;2024-03-02T01:24:07;22.46;22.81
76751;SHT31;65216;51.090;-115.352;2024-03-02T01:26:34;22.45;22.78
76751;SHT31;65216;51.090;-115.352;2024-03-02T01:29:05;22.46;22.76
76751;SHT31;65216;51.090;-115.352;2024-03-02T01:31:32;22.47;22.70
76751;SHT31;65216;51.090;-115.352;2024-03-02T01:33:59;22.45;22.68
76751;SHT31;65216;51.090;-115.352;2024-03-02T01:36:26;22.44;22.68
76751;SHT31;65216;51.090;-115.352;2024-03-02T01:38:53;22.44;22.60
76751;SHT31;65216;51.090;-115.352;2024-03-02T01:41:19;22.43;22.55
76751;SHT31;65216;51.090;-115.352;2024-03-02T01:43:49;22.42;22.58
76751;SHT31;65216;51.090;-115.352;2024-03-02T01:46:15;22.41;22.58
76751;SHT31;65216;51.090;-115.352;2024-03-02T01:48:42;22.42;22.58
76751;SHT31;65216;51.090;-115.352;2024-03-02T01:51:09;22.43;22.51
76751;SHT31;65216;51.090;-115.352;2024-03-02T01:53:37;22.43;22.50
76751;SHT31;65216;51.090;-115.352;2024-03-02T01:56:04;22.43;22.49
76751;SHT31;65216;51.090;-115.352;2024-03-02T01:58:31;22.42;22.48
76751;SHT31;65216;51.090;-115.352;2024-03-02T02:00:58;22.40;22.50
76751;SHT31;65216;51.090;-115.352;2024-03-02T02:03:28;22.37;22.59
76751;SHT31;65216;51.090;-115.352;2024-03-02T02:05:55;22.35;22.60
76751;SHT31;65216;51.090;-115.352;2024-03-02T02:08:22;22.35;22.60
76751;SHT31;65216;51.090;-115.352;2024-03-02T02:10:49;22.37;22.60
76751;SHT31;65216;51.090;-115.352;2024-03-02T02:13:16;22.36;22.57
76751;SHT31;65216;51.090;-115.352;2024-03-02T02:15:42;22.36;22.60
76751;SHT31;65216;51.090;-115.352;2024-03-02T02:18:09;22.36;22.63
76751;SHT31;65216;51.090;-115.352;2024-03-02T02:20:37;22.35;22.67
76751;SHT31;65216;51.090;-115.352;2024-03-02T02:23:04;22.34;22.73
76751;SHT31;65216;51.090;-115.352;2024-03-02T02:25:33;22.34;22.74
76751;SHT31;65216;51.090;-115.352;2024-03-02T02:28:00;22.34;22.71
76751;SHT31;65216;51.090;-115.352;2024-03-02T02:30:29;22.34;22.72
76751;SHT31;65216;51.090;-115.352;2024-03-02T02:32:57;22.33;22.73
76751;SHT31;65216;51.090;-115.352;2024-03-02T02:35:27;22.31;22.81
76751;SHT31;65216;51.090;-115.352;2024-03-02T02:37:55;22.31;22.80
76751;SHT31;65216;51.090;-115.352;2024-03-02T02:40:24;22.31;22.75
76751;SHT31;65216;51.090;-115.352;2024-03-02T02:42:51;22.29;22.68
76751;SHT31;65216;51.090;-115.352;2024-03-02T02:45:18;22.29;22.68
76751;SHT31;65216;51.090;-115.352;2024-03-02T02:47:45;22.29;22.70
76751;SHT31;65216;51.090;-115.352;2024-03-02T02:50:12;22.30;22.70
76751;SHT31;65216;51.090;-115.352;2024-03-02T02:52:40;22.29;22.67
76751;SHT31;65216;51.090;-115.352;2024-03-02T02:55:11;22.30;22.65
76751;SHT31;65216;51.090;-115.352;2024-03-02T02:57:41;22.31;22.59
76751;SHT31;65216;51.090;-115.352;2024-03-02T03:02:45;22.30;22.54
76751;SHT31;65216;51.090;-115.352;2024-03-02T03:05:14;22.30;22.45
76751;SHT31;65216;51.090;-115.352;2024-03-02T03:07:42;22.29;22.48
76751;SHT31;65216;51.090;-115.352;2024-03-02T03:10:10;22.28;22.45
76751;SHT31;65216;51.090;-115.352;2024-03-02T03:12:37;22.28;22.49
76751;SHT31;65216;51.090;-115.352;2024-03-02T03:15:06;22.27;22.51
76751;SHT31;65216;51.090;-115.352;2024-03-02T03:17:35;22.27;22.49
76751;SHT31;65216;51.090;-115.352;2024-03-02T03:20:02;22.26;22.46
76751;SHT31;65216;51.090;-115.352;2024-03-02T03:22:31;22.25;22.50
76751;SHT31;65216;51.090;-115.352;2024-03-02T03:25:01;22.27;22.46
76751;SHT31;65216;51.090;-115.352;2024-03-02T03:27:29;22.27;22.49
76751;SHT31;65216;51.090;-115.352;2024-03-02T03:29:56;22.25;22.51
76751;SHT31;65216;51.090;-115.352;2024-03-02T03:32:26;22.26;22.52
76751;SHT31;65216;51.090;-115.352;2024-03-02T03:34:56;22.26;22.49
76751;SHT31;65216;51.090;-115.352;2024-03-02T03:37:25;22.26;22.46
76751;SHT31;65216;51.090;-115.352;2024-03-02T03:40:00;22.25;22.49
76751;SHT31;65216;51.090;-115.352;2024-03-02T03:42:28;22.25;22.45
76751;SHT31;65216;51.090;-115.352;2024-03-02T03:44:57;22.25;22.46
76751;SHT31;65216;51.090;-115.352;2024-03-02T03:47:24;22.23;22.41
76751;SHT31;65216;51.090;-115.352;2024-03-02T03:49:51;22.22;22.41
76751;SHT31;65216;51.090;-115.352;2024-03-02T03:52:18;22.21;22.34
76751;SHT31;65216;51.090;-115.352;2024-03-02T03:54:46;22.23;22.29
76751;SHT31;65216;51.090;-115.352;2024-03-02T03:57:14;22.19;22.22
76751;SHT31;65216;51.090;-115.352;2024-03-02T03:59:41;22.17;22.20
76751;SHT31;65216;51.090;-115.352;2024-03-02T04:02:10;22.17;22.14
76751;SHT31;65216;51.090;-115.352;2024-03-02T04:04:38;22.20;22.16
76751;SHT31;65216;51.090;-115.352;2024-03-02T04:07:09;22.18;22.09
76751;SHT31;65216;51.090;-115.352;2024-03-02T04:09:37;22.17;22.06
76751;SHT31;65216;51.090;-115.352;2024-03-02T04:12:04;22.17;22.03
76751;SHT31;65216;51.090;-115.352;2024-03-02T04:14:35;22.15;21.96
76751;SHT31;65216;51.090;-115.352;2024-03-02T04:17:03;22.13;21.90
76751;SHT31;65216;51.090;-115.352;2024-03-02T04:19:31;22.14;21.88
76751;SHT31;65216;51.090;-115.352;2024-03-02T04:21:58;22.14;21.80
76751;SHT31;65216;51.090;-115.352;2024-03-02T04:24:25;22.14;21.79
76751;SHT31;65216;51.090;-115.352;2024-03-02T04:26:55;22.12;21.74
76751;SHT31;65216;51.090;-115.352;2024-03-02T04:29:22;22.12;21.70
76751;SHT31;65216;51.090;-115.352;2024-03-02T04:31:49;22.13;21.64
76751;SHT31;65216;51.090;-115.352;2024-03-02T04:34:16;22.14;21.57
76751;SHT31;65216;51.090;-115.352;2024-03-02T04:36:43;22.13;21.49
76751;SHT31;65216;51.090;-115.352;2024-03-02T04:39:10;22.12;21.44
76751;SHT31;65216;51.090;-115.352;2024-03-02T04:41:37;22.12;21.35
76751;SHT31;65216;51.090;-115.352;2024-03-02T04:44:04;22.13;21.26
76751;SHT31;65216;51.090;-115.352;2024-03-02T04:46:33;22.14;21.17
76751;SHT31;65216;51.090;-115.352;2024-03-02T04:49:01;22.13;21.03
76751;SHT31;65216;51.090;-115.352;2024-03-02T04:51:28;22.11;21.01
76751;SHT31;65216;51.090;-115.352;2024-03-02T04:53:55;22.09;20.93
76751;SHT31;65216;51.090;-115.352;2024-03-02T04:56:22;22.10;20.88
76751;SHT31;65216;51.090;-115.352;2024-03-02T04:58:58;22.10;20.80
76751;SHT31;65216;51.090;-115.352;2024-03-02T05:01:24;22.08;20.72
76751;SHT31;65216;51.090;-115.352;2024-03-02T05:03:56;22.08;20.59
76751;SHT31;65216;51.090;-115.352;2024-03-02T05:06:23;22.08;20.51
76751;SHT31;65216;51.090;-115.352;2024-03-02T05:08:52;22.06;20.45
76751;SHT31;65216;51.090;-115.352;2024-03-02T05:11:19;22.08;20.30
76751;SHT31;65216;51.090;-115.352;2024-03-02T05:14:15;22.05;20.30
76751;SHT31;65216;51.090;-115.352;2024-03-02T05:16:42;22.04;20.30
76751;SHT31;65216;51.090;-115.352;2024-03-02T05:19:08;22.04;20.27
76751;SHT31;65216;51.090;-115.352;2024-03-02T05:21:35;22.03;20.20
76751;SHT31;65216;51.090;-115.352;2024-03-02T05:24:02;21.99;20.12
76751;SHT31;65216;51.090;-115.352;2024-03-02T05:26:36;21.98;20.11
76751;SHT31;65216;51.090;-115.352;2024-03-02T05:29:05;21.96;19.90
76751;SHT31;65216;51.090;-115.352;2024-03-02T05:31:32;21.96;19.91
76751;SHT31;65216;51.090;-115.352;2024-03-02T05:33:59;21.94;19.79
76751;SHT31;65216;51.090;-115.352;2024-03-02T05:36:26;21.94;19.74
76751;SHT31;65216;51.090;-115.352;2024-03-02T05:38:57;21.93;19.66
76751;SHT31;65216;51.090;-115.352;2024-03-02T05:41:26;21.95;19.57
76751;SHT31;65216;51.090;-115.352;2024-03-02T05:43:53;21.94;19.46
76751;SHT31;65216;51.090;-115.352;2024-03-02T05:46:20;21.93;19.43
76751;SHT31;65216;51.090;-115.352;2024-03-02T05:48:47;21.92;19.31
76751;SHT31;65216;51.090;-115.352;2024-03-02T05:51:14;21.90;19.17
76751;SHT31;65216;51.090;-115.352;2024-03-02T05:53:41;21.89;19.07
76751;SHT31;65216;51.090;-115.352;2024-03-02T05:56:08;21.87;18.96
76751;SHT31;65216;51.090;-115.352;2024-03-02T05:58:37;21.87;18.98
76751;SHT31;65216;51.090;-115.352;2024-03-02T06:01:23;21.89;18.90
76751;SHT31;65216;51.090;-115.352;2024-03-02T06:03:56;21.90;18.81
76751;SHT31;65216;51.090;-115.352;2024-03-02T06:06:24;21.89;18.69
76751;SHT31;65216;51.090;-115.352;2024-03-02T06:08:51;21.89;18.68
76751;SHT31;65216;51.090;-115.352;2024-03-02T06:11:21;21.90;18.60
76751;SHT31;65216;51.090;-115.352;2024-03-02T06:13:48;21.89;18.55
76751;SHT31;65216;51.090;-115.352;2024-03-02T06:16:15;21.87;18.44
76751;SHT31;65216;51.090;-115.352;2024-03-02T06:18:42;21.89;18.42
76751;SHT31;65216;51.090;-115.352;2024-03-02T06:21:08;21.92;18.35
76751;SHT31;65216;51.090;-115.352;2024-03-02T06:23:35;21.92;18.29
76751;SHT31;65216;51.090;-115.352;2024-03-02T06:26:02;21.92;18.30
76751;SHT31;65216;51.090;-115.352;2024-03-02T06:28:29;21.93;18.15
76751;SHT31;65216;51.090;-115.352;2024-03-02T06:30:56;21.92;18.10
76751;SHT31;65216;51.090;-115.352;2024-03-02T06:33:23;21.92;18.08
76751;SHT31;65216;51.090;-115.352;2024-03-02T06:35:52;21.92;18.16
76751;SHT31;65216;51.090;-115.352;2024-03-02T06:38:19;21.93;18.10
76751;SHT31;65216;51.090;-115.352;2024-03-02T06:40:46;21.93;18.07
76751;SHT31;65216;51.090;-115.352;2024-03-02T06:43:13;21.95;17.98
76751;SHT31;65216;51.090;-115.352;2024-03-02T06:45:40;21.96;18.00
76751;SHT31;65216;51.090;-115.352;2024-03-02T06:48:07;21.95;17.98
76751;SHT31;65216;51.090;-115.352;2024-03-02T06:50:33;21.95;17.92
76751;SHT31;65216;51.090;-115.352;2024-03-02T06:53:00;21.96;17.88
76751;SHT31;65216;51.090;-115.352;2024-03-02T06:55:29;21.96;17.90
76751;SHT31;65216;51.090;-115.352;2024-03-02T06:57:56;21.96;17.88
76751;SHT31;65216;51.090;-115.352;2024-03-02T07:00:23;21.97;17.81
76751;SHT31;65216;51.090;-115.352;2024-03-02T07:02:50;21.96;17.78
76751;SHT31;65216;51.090;-115.352;2024-03-02T07:05:16;21.96;17.77
76751;SHT31;65216;51.090;-115.352;2024-03-02T07:07:43;21.98;17.81
76751;SHT31;65216;51.090;-115.352;2024-03-02T07:10:10;21.98;17.80
76751;SHT31;65216;51.090;-115.352;2024-03-02T07:12:37;21.97;17.80
76751;SHT31;65216;51.090;-115.352;2024-03-02T07:15:04;21.99;17.79
76751;SHT31;65216;51.090;-115.352;2024-03-02T07:17:31;21.98;17.81
76751;SHT31;65216;51.090;-115.352;2024-03-02T07:19:58;21.97;17.79
76751;SHT31;65216;51.090;-115.352;2024-03-02T07:22:25;21.97;17.80
76751;SHT31;65216;51.090;-115.352;2024-03-02T07:24:52;21.97;17.80
76751;SHT31;65216;51.090;-115.352;2024-03-02T07:27:19;21.97;17.79
76751;SHT31;65216;51.090;-115.352;2024-03-02T07:29:46;21.98;17.76
76751;SHT31;65216;51.090;-115.352;2024-03-02T07:32:13;21.99;17.74
76751;SHT31;65216;51.090;-115.352;2024-03-02T07:34:40;21.99;17.73
76751;SHT31;65216;51.090;-115.352;2024-03-02T07:37:07;22.00;17.72
76751;SHT31;65216;51.090;-115.352;2024-03-02T07:39:34;22.00;17.71
76751;SHT31;65216;51.090;-115.352;2024-03-02T07:42:00;22.00;17.69
76751;SHT31;65216;51.090;-115.352;2024-03-02T07:44:31;21.98;17.68
76751;SHT31;65216;51.090;-115.352;2024-03-02T07:46:58;21.98;17.69
76751;SHT31;65216;51.090;-115.352;2024-03-02T07:49:25;21.98;17.69
76751;SHT31;65216;51.090;-115.352;2024-03-02T07:51:52;21.99;17.66
76751;SHT31;65216;51.090;-115.352;2024-03-02T07:54:18;21.97;17.67
76751;SHT31;65216;51.090;-115.352;2024-03-02T07:56:45;21.98;17.62
76751;SHT31;65216;51.090;-115.352;2024-03-02T07:59:13;21.99;17.59
76751;SHT31;65216;51.090;-115.352;2024-03-02T08:01:44;21.99;17.58
76751;SHT31;65216;51.090;-115.352;2024-03-02T08:04:11;21.99;17.53
76751;SHT31;65216;51.090;-115.352;2024-03-02T08:06:38;21.99;17.49
76751;SHT31;65216;51.090;-115.352;2024-03-02T08:09:05;21.99;17.43
76751;SHT31;65216;51.090;-115.352;2024-03-02T08:11:35;21.97;17.47
76751;SHT31;65216;51.090;-115.352;2024-03-02T08:14:04;21.96;17.40
76751;SHT31;65216;51.090;-115.352;2024-03-02T08:16:31;21.96;17.41
76751;SHT31;65216;51.090;-115.352;2024-03-02T08:18:58;21.96;17.39
76751;SHT31;65216;51.090;-115.352;2024-03-02T08:21:25;21.96;17.39
76751;SHT31;65216;51.090;-115.352;2024-03-02T08:23:57;21.97;17.34
76751;SHT31;65216;51.090;-115.352;2024-03-02T08:26:25;21.96;17.33
76751;SHT31;65216;51.090;-115.352;2024-03-02T08:28:55;21.95;17.30
76751;SHT31;65216;51.090;-115.352;2024-03-02T08:31:23;21.96;17.28
76751;SHT31;65216;51.090;-115.352;2024-03-02T08:33:53;21.96;17.25
76751;SHT31;65216;51.090;-115.352;2024-03-02T08:36:25;21.95;17.20
76751;SHT31;65216;51.090;-115.352;2024-03-02T08:38:52;21.94;17.19
76751;SHT31;65216;51.090;-115.352;2024-03-02T08:41:22;21.92;17.19
76751;SHT31;65216;51.090;-115.352;2024-03-02T08:43:51;21.91;17.20
76751;SHT31;65216;51.090;-115.352;2024-03-02T08:46:18;21.92;17.15
76751;SHT31;65216;51.090;-115.352;2024-03-02T08:48:45;21.93;17.11
76751;SHT31;65216;51.090;-115.352;2024-03-02T08:51:12;21.92;17.12
76751;SHT31;65216;51.090;-115.352;2024-03-02T08:53:41;21.93;17.08
76751;SHT31;65216;51.090;-115.352;2024-03-02T08:56:09;21.93;17.02
76751;SHT31;65216;51.090;-115.352;2024-03-02T08:58:39;21.93;17.01
76751;SHT31;65216;51.090;-115.352;2024-03-02T09:01:05;21.93;17.00
76751;SHT31;65216;51.090;-115.352;2024-03-02T09:03:33;21.92;16.98
76751;SHT31;65216;51.090;-115.352;2024-03-02T09:06:01;21.94;16.96
76751;SHT31;65216;51.090;-115.352;2024-03-02T09:08:28;21.93;16.96
76751;SHT31;65216;51.090;-115.352;2024-03-02T09:10:55;21.93;16.90
76751;SHT31;65216;51.090;-115.352;2024-03-02T09:13:22;21.92;16.85
76751;SHT31;65216;51.090;-115.352;2024-03-02T09:15:49;21.92;16.84
76751;SHT31;65216;51.090;-115.352;2024-03-02T09:18:16;21.92;16.82
76751;SHT31;65216;51.090;-115.352;2024-03-02T09:20:45;21.92;16.77
76751;SHT31;65216;51.090;-115.352;2024-03-02T09:23:12;21.92;16.76
76751;SHT31;65216;51.090;-115.352;2024-03-02T09:25:39;21.91;16.79
76751;SHT31;65216;51.090;-115.352;2024-03-02T09:28:09;21.93;16.75
76751;SHT31;65216;51.090;-115.352;2024-03-02T09:30:36;21.92;16.72
76751;SHT31;65216;51.090;-115.352;2024-03-02T09:33:04;21.92;16.71
76751;SHT31;65216;51.090;-115.352;2024-03-02T09:35:31;21.92;16.71
76751;SHT31;65216;51.090;-115.352;2024-03-02T09:37:58;21.92;16.64
76751;SHT31;65216;51.090;-115.352;2024-03-02T09:40:25;21.92;16.65
76751;SHT31;65216;51.090;-115.352;2024-03-02T09:42:53;21.92;16.61
76751;SHT31;65216;51.090;-115.352;2024-03-02T09:45:24;21.91;16.60
76751;SHT31;65216;51.090;-115.352;2024-03-02T09:47:52;21.91;16.57
76751;SHT31;65216;51.090;-115.352;2024-03-02T09:50:19;21.91;16.58
76751;SHT31;65216;51.090;-115.352;2024-03-02T09:52:48;21.91;16.58
76751;SHT31;65216;51.090;-115.352;2024-03-02T09:55:16;21.89;16.56
76751;SHT31;65216;51.090;-115.352;2024-03-02T09:57:44;21.89;16.58
76751;SHT31;65216;51.090;-115.352;2024-03-02T10:00:14;21.90;16.59
76751;SHT31;65216;51.090;-115.352;2024-03-02T10:02:42;21.90;16.58
76751;SHT31;65216;51.090;-115.352;2024-03-02T10:05:12;21.90;16.51
76751;SHT31;65216;51.090;-115.352;2024-03-02T10:07:39;21.90;16.48
76751;SHT31;65216;51.090;-115.352;2024-03-02T10:10:15;21.89;16.48
76751;SHT31;65216;51.090;-115.352;2024-03-02T10:12:42;21.89;16.50
76751;SHT31;65216;51.090;-115.352;2024-03-02T10:15:09;21.90;16.43
76751;SHT31;65216;51.090;-115.352;2024-03-02T10:17:36;21.90;16.45
76751;SHT31;65216;51.090;-115.352;2024-03-02T10:20:22;21.89;16.47
76751;SHT31;65216;51.090;-115.352;2024-03-02T10:22:55;21.89;16.44
76751;SHT31;65216;51.090;-115.352;2024-03-02T10:25:34;21.88;16.40
76751;SHT31;65216;51.090;-115.352;2024-03-02T10:28:01;21.88;16.39
76751;SHT31;65216;51.090;-115.352;2024-03-02T10:30:31;21.89;16.40
76751;SHT31;65216;51.090;-115.352;2024-03-02T10:33:00;21.89;16.35
76751;SHT31;65216;51.090;-115.352;2024-03-02T10:35:28;21.88;16.36
76751;SHT31;65216;51.090;-115.352;2024-03-02T10:38:03;21.86;16.34
76751;SHT31;65216;51.090;-115.352;2024-03-02T10:40:31;21.87;16.29
76751;SHT31;65216;51.090;-115.352;2024-03-02T10:42:59;21.87;16.30
76751;SHT31;65216;51.090;-115.352;2024-03-02T10:45:30;21.87;16.30
76751;SHT31;65216;51.090;-115.352;2024-03-02T10:48:01;21.87;16.26
76751;SHT31;65216;51.090;-115.352;2024-03-02T10:50:30;21.85;16.26
76751;SHT31;65216;51.090;-115.352;2024-03-02T10:52:57;21.85;16.26
76751;SHT31;65216;51.090;-115.352;2024-03-02T10:55:24;21.86;16.27
76751;SHT31;65216;51.090;-115.352;2024-03-02T10:57:54;21.88;16.20
76751;SHT31;65216;51.090;-115.352;2024-03-02T11:00:23;21.87;16.19
76751;SHT31;65216;51.090;-115.352;2024-03-02T11:02:57;21.87;16.16
76751;SHT31;65216;51.090;-115.352;2024-03-02T11:05:36;21.86;16.17
76751;SHT31;65216;51.090;-115.352;2024-03-02T11:08:07;21.85;16.13
76751;SHT31;65216;51.090;-115.352;2024-03-02T11:10:50;21.85;16.09
76751;SHT31;65216;51.090;-115.352;2024-03-02T11:13:25;21.87;16.10
76751;SHT31;65216;51.090;-115.352;2024-03-02T11:16:04;21.87;16.09
76751;SHT31;65216;51.090;-115.352;2024-03-02T11:18:39;21.86;16.07
76751;SHT31;65216;51.090;-115.352;2024-03-02T11:21:07;21.88;16.09
76751;SHT31;65216;51.090;-115.352;2024-03-02T11:23:36;21.87;16.04
76751;SHT31;65216;51.090;-115.352;2024-03-02T11:26:19;21.87;16.06
76751;SHT31;65216;51.090;-115.352;2024-03-02T11:28:50;21.86;16.10
76751;SHT31;65216;51.090;-115.352;2024-03-02T11:31:17;21.86;16.08
76751;SHT31;65216;51.090;-115.352;2024-03-02T11:33:47;21.85;16.08
76751;SHT31;65216;51.090;-115.352;2024-03-02T11:36:13;21.83;16.19
76751;SHT31;65216;51.090;-115.352;2024-03-02T11:38:49;21.83;16.14
76751;SHT31;65216;51.090;-115.352;2024-03-02T11:41:18;21.86;16.10
76751;SHT31;65216;51.090;-115.352;2024-03-02T11:43:47;21.86;16.23
76751;SHT31;65216;51.090;-115.352;2024-03-02T11:46:15;21.86;16.27
76751;SHT31;65216;51.090;-115.352;2024-03-02T11:48:44;21.85;16.31
76751;SHT31;65216;51.090;-115.352;2024-03-02T11:51:12;21.86;16.58
76751;SHT31;65216;51.090;-115.352;2024-03-02T11:53:39;21.85;17.00
76751;SHT31;65216;51.090;-115.352;2024-03-02T11:56:11;21.84;16.94
76751;SHT31;65216;51.090;-115.352;2024-03-02T11:58:41;21.85;16.84
76751;SHT31;65216;51.090;-115.352;2024-03-02T12:01:09;21.86;16.80
76751;SHT31;65216;51.090;-115.352;2024-03-02T12:03:38;21.85;17.25
76751;SHT31;65216;51.090;-115.352;2024-03-02T12:06:05;21.83;17.45
76751;SHT31;65216;51.090;-115.352;2024-03-02T12:08:33;21.81;17.83
76751;SHT31;65216;51.090;-115.352;2024-03-02T12:11:01;21.80;18.22
76751;SHT31;65216;51.090;-115.352;2024-03-02T12:13:32;21.80;18.16
76751;SHT31;65216;51.090;-115.352;2024-03-02T12:15:59;21.79;18.08
76751;SHT31;65216;51.090;-115.352;2024-03-02T12:18:26;21.80;18.12
76751;SHT31;65216;51.090;-115.352;2024-03-02T12:20:56;21.81;18.13
76751;SHT31;65216;51.090;-115.352;2024-03-02T12:23:23;21.80;18.00
76751;SHT31;65216;51.090;-115.352;2024-03-02T12:25:51;21.79;17.81
76751;SHT31;65216;51.090;-115.352;2024-03-02T12:28:19;21.77;17.79
76751;SHT31;65216;51.090;-115.352;2024-03-02T12:30:46;21.76;17.78
76751;SHT31;65216;51.090;-115.352;2024-03-02T12:33:14;21.75;17.65
76751;SHT31;65216;51.090;-115.352;2024-03-02T12:35:42;21.73;17.53
76751;SHT31;65216;51.090;-115.352;2024-03-02T12:38:09;21.70;17.50
76751;SHT31;65216;51.090;-115.352;2024-03-02T12:40:36;21.69;17.47
76751;SHT31;65216;51.090;-115.352;2024-03-02T12:43:04;21.69;17.39
76751;SHT31;65216;51.090;-115.352;2024-03-02T12:45:36;21.67;17.29
76751;SHT31;65216;51.090;-115.352;2024-03-02T12:48:04;21.66;17.24
76751;SHT31;65216;51.090;-115.352;2024-03-02T12:50:32;21.65;17.16
76751;SHT31;65216;51.090;-115.352;2024-03-02T12:52:59;21.64;17.11
76751;SHT31;65216;51.090;-115.352;2024-03-02T12:55:27;21.62;17.07
76751;SHT31;65216;51.090;-115.352;2024-03-02T12:57:54;21.60;17.06
76751;SHT31;65216;51.090;-115.352;2024-03-02T13:00:25;21.56;17.01
76751;SHT31;65216;51.090;-115.352;2024-03-02T13:02:52;21.56;16.92
76751;SHT31;65216;51.090;-115.352;2024-03-02T13:05:19;21.56;16.89
76751;SHT31;65216;51.090;-115.352;2024-03-02T13:07:48;21.54;16.85
76751;SHT31;65216;51.090;-115.352;2024-03-02T13:10:15;21.52;16.79
76751;SHT31;65216;51.090;-115.352;2024-03-02T13:12:43;21.50;16.74
76751;SHT31;65216;51.090;-115.352;2024-03-02T13:15:10;21.49;16.77
76751;SHT31;65216;51.090;-115.352;2024-03-02T13:17:38;21.48;16.71
76751;SHT31;65216;51.090;-115.352;2024-03-02T13:20:13;21.48;16.67
76751;SHT31;65216;51.090;-115.352;2024-03-02T13:22:40;21.48;16.61
76751;SHT31;65216;51.090;-115.352;2024-03-02T13:25:07;21.47;16.59
76751;SHT31;65216;51.090;-115.352;2024-03-02T13:27:36;21.47;16.59
76751;SHT31;65216;51.090;-115.352;2024-03-02T13:30:03;21.47;16.55
76751;SHT31;65216;51.090;-115.352;2024-03-02T13:32:36;21.46;16.51
76751;SHT31;65216;51.090;-115.352;2024-03-02T13:35:03;21.46;16.49
76751;SHT31;65216;51.090;-115.352;2024-03-02T13:37:30;21.47;16.44
76751;SHT31;65216;51.090;-115.352;2024-03-02T13:39:57;21.44;16.44
76751;SHT31;65216;51.090;-115.352;2024-03-02T13:42:24;21.43;16.38
76751;SHT31;65216;51.090;-115.352;2024-03-02T13:44:51;21.42;16.37
76751;SHT31;65216;51.090;-115.352;2024-03-02T13:47:18;21.40;16.39
76751;SHT31;65216;51.090;-115.352;2024-03-02T13:49:45;21.39;16.37
76751;SHT31;65216;51.090;-115.352;2024-03-02T13:52:17;21.38;16.37
76751;SHT31;65216;51.090;-115.352;2024-03-02T13:54:46;21.38;16.32
76751;SHT31;65216;51.090;-115.352;2024-03-02T13:57:14;21.37;16.30
76751;SHT31;65216;51.090;-115.352;2024-03-02T13:59:45;21.35;16.31
76751;SHT31;65216;51.090;-115.352;2024-03-02T14:02:12;21.34;16.26
76751;SHT31;65216;51.090;-115.352;2024-03-02T14:04:39;21.34;16.25
76751;SHT31;65216;51.090;-115.352;2024-03-02T14:07:07;21.32;16.21
76751;SHT31;65216;51.090;-115.352;2024-03-02T14:09:33;21.32;16.20
76751;SHT31;65216;51.090;-115.352;2024-03-02T14:12:01;21.31;16.16
76751;SHT31;65216;51.090;-115.352;2024-03-02T14:14:29;21.30;16.19
76751;SHT31;65216;51.090;-115.352;2024-03-02T14:16:56;21.29;16.15
76751;SHT31;65216;51.090;-115.352;2024-03-02T14:19:29;21.29;16.17
76751;SHT31;65216;51.090;-115.352;2024-03-02T14:21:56;21.29;16.17
76751;SHT31;65216;51.090;-115.352;2024-03-02T14:24:23;21.28;16.14
76751;SHT31;65216;51.090;-115.352;2024-03-02T14:26:54;21.30;16.12
76751;SHT31;65216;51.090;-115.352;2024-03-02T14:29:23;21.31;16.12
76751;SHT31;65216;51.090;-115.352;2024-03-02T14:31:49;21.30;16.10
76751;SHT31;65216;51.090;-115.352;2024-03-02T14:34:18;21.31;16.07
76751;SHT31;65216;51.090;-115.352;2024-03-02T14:36:45;21.33;16.03
76751;SHT31;65216;51.090;-115.352;2024-03-02T14:39:12;21.34;16.02
76751;SHT31;65216;51.090;-115.352;2024-03-02T14:41:39;21.34;16.01
76751;SHT31;65216;51.090;-115.352;2024-03-02T14:44:06;21.34;16.00
76751;SHT31;65216;51.090;-115.352;2024-03-02T14:46:33;21.36;15.92
76751;SHT31;65216;51.090;-115.352;2024-03-02T14:49:00;21.36;15.94
76751;SHT31;65216;51.090;-115.352;2024-03-02T14:51:27;21.36;15.91
76751;SHT31;65216;51.090;-115.352;2024-03-02T14:53:55;21.34;15.91
76751;SHT31;65216;51.090;-115.352;2024-03-02T14:56:24;21.34;15.90
76751;SHT31;65216;51.090;-115.352;2024-03-02T14:58:50;21.34;15.89
76751;SHT31;65216;51.090;-115.352;2024-03-02T15:01:17;21.34;15.90